createdAt,value
2024-02-19T00:00:43.758Z,6.6
2024-02-19T00:15:41.262Z,6.5
2024-02-19T00:30:43.760Z,6.2
2024-02-19T00:45:43.763Z,6.3
2024-02-19T01:00:44.087Z,6.1
2024-02-19T01:15:42.961Z,6.1
2024-02-19T01:30:44.032Z,5.9
2024-02-19T01:45:42.371Z,5.9
2024-02-19T02:00:45.556Z,5.8
2024-02-19T02:15:43.928Z,5.8
2024-02-19T02:30:45.802Z,5.9
2024-02-19T02:45:54.220Z,5.9
2024-02-19T03:00:47.307Z,5.9
2024-02-19T03:15:46.462Z,5.9
2024-02-19T03:30:47.662Z,6.4
2024-02-19T03:45:47.687Z,6.3
2024-02-19T04:00:50.243Z,6.3
2024-02-19T04:15:52.404Z,6.2
2024-02-19T04:30:52.845Z,6
2024-02-19T04:45:59.921Z,6
2024-02-19T05:01:00.897Z,6.1
2024-02-19T05:15:55.115Z,6
2024-02-19T05:30:55.609Z,6
2024-02-19T05:45:55.576Z,6.4
2024-02-19T06:00:57.387Z,6.3
2024-02-19T06:15:58.068Z,6.5
2024-02-19T06:30:58.384Z,6.6
2024-02-19T06:38:20.579Z,6.6
2024-02-19T06:53:21.658Z,6.5
2024-02-19T07:08:28.572Z,6.5
2024-02-19T07:23:25.009Z,6.6
2024-02-19T07:38:26.367Z,6.7
2024-02-19T07:53:23.735Z,6.8
2024-02-19T08:08:23.900Z,6.8
2024-02-19T08:23:25.052Z,6.8
2024-02-19T08:38:26.513Z,6.8
2024-02-19T08:53:28.824Z,6.8
2024-02-19T09:08:26.954Z,7
2024-02-19T09:23:31.951Z,7
2024-02-19T09:38:29.131Z,7
2024-02-19T09:53:30.060Z,7
2024-02-19T10:08:34.766Z,7
2024-02-19T10:23:31.357Z,7.4
2024-02-19T10:38:32.036Z,7.3
2024-02-19T10:53:35.502Z,7.3
2024-02-19T11:08:33.066Z,7
2024-02-19T11:23:34.321Z,7.5
2024-02-19T11:38:34.669Z,9.4
2024-02-19T11:53:36.074Z,8.5
2024-02-19T12:08:36.418Z,9
2024-02-19T12:23:37.354Z,7.8
2024-02-19T12:38:38.084Z,7
2024-02-19T12:53:39.447Z,6.9
2024-02-19T13:08:38.443Z,7.1
2024-02-19T13:23:39.725Z,6.9
2024-02-19T13:38:41.853Z,7
2024-02-19T13:53:42.048Z,6.9
2024-02-19T14:08:41.899Z,7
2024-02-19T14:23:45.924Z,7.1
2024-02-19T14:38:43.134Z,7.2
2024-02-19T14:53:46.469Z,7.2
2024-02-19T15:08:44.183Z,7.1
2024-02-19T15:23:45.418Z,7.2
2024-02-19T15:38:45.671Z,7.8
2024-02-19T15:53:46.719Z,7.3
2024-02-19T16:08:47.585Z,7.1
2024-02-19T16:23:48.137Z,7.1
2024-02-19T16:38:48.454Z,7.1
2024-02-19T16:53:48.780Z,6.9
2024-02-19T17:08:50.092Z,6.7
2024-02-19T17:23:51.146Z,6.6
2024-02-19T17:38:50.984Z,6.6
2024-02-19T17:53:51.600Z,6.5
2024-02-19T18:08:51.506Z,6.4
2024-02-19T18:23:53.907Z,6.4
2024-02-19T18:38:52.847Z,6.4
2024-02-19T18:53:54.147Z,6.4
2024-02-19T19:08:55.508Z,6.5
2024-02-19T19:23:55.393Z,6.6
2024-02-19T19:38:55.864Z,6.3
2024-02-19T19:53:56.294Z,6.3
2024-02-19T20:08:57.950Z,6.3
2024-02-19T20:23:58.528Z,6.2
2024-02-19T20:38:58.703Z,6.2
2024-02-19T20:54:00.117Z,6.2
2024-02-19T21:09:00.353Z,5.9
2024-02-19T21:24:00.541Z,6
2024-02-19T21:39:01.375Z,5.9
2024-02-19T21:54:01.895Z,5.9
2024-02-19T22:09:04.424Z,5.8
2024-02-19T22:24:02.974Z,5.7
2024-02-19T22:39:06.687Z,5.7
2024-02-19T22:54:04.819Z,5.6
2024-02-19T23:00:34.724Z,5.6
2024-02-19T23:15:34.895Z,5.5
2024-02-19T23:30:35.146Z,5.4
2024-02-19T23:45:37.192Z,5.2
